sensor_id;sensor_type;location;lat;lon;timestamp;P1;durP1;ratioP1;P2;durP2;ratioP2
59504;SDS011;45321;53.200;5.814;2023-02-28T00:01:05;7.05;;;2.80;;
59504;SDS011;45321;53.200;5.814;2023-02-28T00:03:31;10.85;;;2.83;;
59504;SDS011;45321;53.200;5.814;2023-02-28T00:06:00;9.93;;;3.17;;
59504;SDS011;45321;53.200;5.814;2023-02-28T00:08:27;10.48;;;3.58;;
59504;SDS011;45321;53.200;5.814;2023-02-28T00:10:53;15.05;;;5.80;;
59504;SDS011;45321;53.200;5.814;2023-02-28T00:13:19;12.27;;;5.50;;
59504;SDS011;45321;53.200;5.814;2023-02-28T00:15:44;19.88;;;4.95;;
59504;SDS011;45321;53.200;5.814;2023-02-28T00:18:11;15.85;;;3.78;;
59504;SDS011;45321;53.200;5.814;2023-02-28T00:20:40;11.70;;;3.83;;
59504;SDS011;45321;53.200;5.814;2023-02-28T00:23:05;11.00;;;3.30;;
59504;SDS011;45321;53.200;5.814;2023-02-28T00:25:31;9.15;;;2.80;;
59504;SDS011;45321;53.200;5.814;2023-02-28T00:27:57;7.22;;;2.65;;
59504;SDS011;45321;53.200;5.814;2023-02-28T00:30:23;13.88;;;2.47;;
59504;SDS011;45321;53.200;5.814;2023-02-28T00:32:49;11.07;;;2.83;;
59504;SDS011;45321;53.200;5.814;2023-02-28T00:35:15;7.90;;;2.75;;
59504;SDS011;45321;53.200;5.814;2023-02-28T00:37:42;10.20;;;3.28;;
59504;SDS011;45321;53.200;5.814;2023-02-28T00:40:08;15.38;;;3.67;;
59504;SDS011;45321;53.200;5.814;2023-02-28T00:42:35;8.80;;;2.97;;
59504;SDS011;45321;53.200;5.814;2023-02-28T00:45:01;14.75;;;3.50;;
59504;SDS011;45321;53.200;5.814;2023-02-28T00:47:29;8.88;;;2.60;;
59504;SDS011;45321;53.200;5.814;2023-02-28T00:49:54;10.38;;;2.75;;
59504;SDS011;45321;53.200;5.814;2023-02-28T00:52:20;10.75;;;2.78;;
59504;SDS011;45321;53.200;5.814;2023-02-28T00:54:46;8.85;;;2.30;;
59504;SDS011;45321;53.200;5.814;2023-02-28T00:57:12;7.85;;;2.78;;
59504;SDS011;45321;53.200;5.814;2023-02-28T00:59:38;9.25;;;2.42;;
59504;SDS011;45321;53.200;5.814;2023-02-28T01:02:03;8.85;;;2.25;;
59504;SDS011;45321;53.200;5.814;2023-02-28T01:04:29;12.35;;;2.92;;
59504;SDS011;45321;53.200;5.814;2023-02-28T01:06:55;10.07;;;2.85;;
59504;SDS011;45321;53.200;5.814;2023-02-28T01:09:21;7.28;;;2.47;;
59504;SDS011;45321;53.200;5.814;2023-02-28T01:11:46;7.50;;;2.47;;
59504;SDS011;45321;53.200;5.814;2023-02-28T01:14:13;8.43;;;2.80;;
59504;SDS011;45321;53.200;5.814;2023-02-28T01:16:40;9.43;;;2.47;;
59504;SDS011;45321;53.200;5.814;2023-02-28T01:19:05;8.77;;;2.88;;
59504;SDS011;45321;53.200;5.814;2023-02-28T01:21:31;10.95;;;2.65;;
59504;SDS011;45321;53.200;5.814;2023-02-28T01:23:57;11.15;;;2.42;;
59504;SDS011;45321;53.200;5.814;2023-02-28T01:26:23;7.88;;;2.22;;
59504;SDS011;45321;53.200;5.814;2023-02-28T01:28:50;13.02;;;2.63;;
59504;SDS011;45321;53.200;5.814;2023-02-28T01:31:17;9.52;;;2.00;;
59504;SDS011;45321;53.200;5.814;2023-02-28T01:33:44;10.65;;;2.30;;
59504;SDS011;45321;53.200;5.814;2023-02-28T01:36:18;7.20;;;2.10;;
59504;SDS011;45321;53.200;5.814;2023-02-28T01:38:45;11.57;;;2.53;;
59504;SDS011;45321;53.200;5.814;2023-02-28T01:41:22;8.15;;;1.80;;
59504;SDS011;45321;53.200;5.814;2023-02-28T01:43:52;7.20;;;2.22;;
59504;SDS011;45321;53.200;5.814;2023-02-28T01:46:23;8.95;;;2.72;;
59504;SDS011;45321;53.200;5.814;2023-02-28T01:49:08;9.85;;;2.40;;
59504;SDS011;45321;53.200;5.814;2023-02-28T01:51:46;12.30;;;2.40;;
59504;SDS011;45321;53.200;5.814;2023-02-28T01:54:24;8.02;;;1.92;;
59504;SDS011;45321;53.200;5.814;2023-02-28T01:56:59;9.02;;;2.10;;
59504;SDS011;45321;53.200;5.814;2023-02-28T01:59:37;7.70;;;2.00;;
59504;SDS011;45321;53.200;5.814;2023-02-28T02:02:16;6.93;;;2.03;;
59504;SDS011;45321;53.200;5.814;2023-02-28T02:04:58;6.57;;;1.80;;
59504;SDS011;45321;53.200;5.814;2023-02-28T02:07:29;7.15;;;1.98;;
59504;SDS011;45321;53.200;5.814;2023-02-28T02:10:59;9.98;;;2.10;;
59504;SDS011;45321;53.200;5.814;2023-02-28T02:13:02;9.75;;;2.10;;
59504;SDS011;45321;53.200;5.814;2023-02-28T02:34:49;5.60;;;1.67;;
59504;SDS011;45321;53.200;5.814;2023-02-28T02:40:16;9.82;;;2.00;;
59504;SDS011;45321;53.200;5.814;2023-02-28T02:42:51;8.95;;;2.42;;
59504;SDS011;45321;53.200;5.814;2023-02-28T02:48:27;8.10;;;1.88;;
59504;SDS011;45321;53.200;5.814;2023-02-28T02:50:57;11.65;;;2.50;;
59504;SDS011;45321;53.200;5.814;2023-02-28T02:53:30;10.23;;;2.10;;
59504;SDS011;45321;53.200;5.814;2023-02-28T02:56:03;5.32;;;1.45;;
59504;SDS011;45321;53.200;5.814;2023-02-28T02:58:32;5.50;;;1.40;;
59504;SDS011;45321;53.200;5.814;2023-02-28T03:01:07;10.27;;;2.58;;
59504;SDS011;45321;53.200;5.814;2023-02-28T03:03:35;7.63;;;1.50;;
59504;SDS011;45321;53.200;5.814;2023-02-28T03:06:02;8.32;;;2.00;;
59504;SDS011;45321;53.200;5.814;2023-02-28T03:08:29;4.43;;;1.70;;
59504;SDS011;45321;53.200;5.814;2023-02-28T03:11:00;6.47;;;1.70;;
59504;SDS011;45321;53.200;5.814;2023-02-28T03:21:31;8.70;;;1.85;;
59504;SDS011;45321;53.200;5.814;2023-02-28T03:24:04;7.35;;;1.95;;
59504;SDS011;45321;53.200;5.814;2023-02-28T03:26:31;7.30;;;1.75;;
59504;SDS011;45321;53.200;5.814;2023-02-28T03:29:03;7.15;;;1.73;;
59504;SDS011;45321;53.200;5.814;2023-02-28T03:31:58;5.63;;;1.95;;
59504;SDS011;45321;53.200;5.814;2023-02-28T03:34:37;8.30;;;2.50;;
59504;SDS011;45321;53.200;5.814;2023-02-28T03:37:09;10.27;;;2.00;;
59504;SDS011;45321;53.200;5.814;2023-02-28T03:39:59;5.13;;;2.08;;
59504;SDS011;45321;53.200;5.814;2023-02-28T03:42:31;9.95;;;2.17;;
59504;SDS011;45321;53.200;5.814;2023-02-28T03:45:05;8.82;;;1.55;;
59504;SDS011;45321;53.200;5.814;2023-02-28T03:50:29;9.40;;;2.20;;
59504;SDS011;45321;53.200;5.814;2023-02-28T03:53:27;9.50;;;1.90;;
59504;SDS011;45321;53.200;5.814;2023-02-28T04:04:03;6.47;;;1.73;;
59504;SDS011;45321;53.200;5.814;2023-02-28T04:06:30;6.35;;;1.60;;
59504;SDS011;45321;53.200;5.814;2023-02-28T04:08:57;11.27;;;1.80;;
59504;SDS011;45321;53.200;5.814;2023-02-28T04:11:34;7.57;;;1.48;;
59504;SDS011;45321;53.200;5.814;2023-02-28T04:14:16;8.60;;;2.00;;
59504;SDS011;45321;53.200;5.814;2023-02-28T04:16:43;6.45;;;1.70;;
59504;SDS011;45321;53.200;5.814;2023-02-28T04:19:10;7.88;;;2.08;;
59504;SDS011;45321;53.200;5.814;2023-02-28T04:21:44;8.80;;;2.58;;
59504;SDS011;45321;53.200;5.814;2023-02-28T04:24:13;8.82;;;2.20;;
59504;SDS011;45321;53.200;5.814;2023-02-28T04:26:45;8.98;;;1.80;;
59504;SDS011;45321;53.200;5.814;2023-02-28T04:29:12;5.80;;;1.65;;
59504;SDS011;45321;53.200;5.814;2023-02-28T04:31:40;5.47;;;1.50;;
59504;SDS011;45321;53.200;5.814;2023-02-28T04:34:06;9.63;;;1.45;;
59504;SDS011;45321;53.200;5.814;2023-02-28T04:36:32;8.98;;;1.90;;
59504;SDS011;45321;53.200;5.814;2023-02-28T04:38:58;8.90;;;1.88;;
59504;SDS011;45321;53.200;5.814;2023-02-28T04:41:23;7.13;;;1.98;;
59504;SDS011;45321;53.200;5.814;2023-02-28T04:43:52;7.15;;;2.03;;
59504;SDS011;45321;53.200;5.814;2023-02-28T04:46:18;12.35;;;3.03;;
59504;SDS011;45321;53.200;5.814;2023-02-28T04:48:44;7.13;;;2.47;;
59504;SDS011;45321;53.200;5.814;2023-02-28T04:51:12;10.88;;;2.15;;
59504;SDS011;45321;53.200;5.814;2023-02-28T04:53:39;7.65;;;2.13;;
59504;SDS011;45321;53.200;5.814;2023-02-28T04:56:06;10.23;;;2.20;;
59504;SDS011;45321;53.200;5.814;2023-02-28T04:58:33;4.82;;;1.60;;
59504;SDS011;45321;53.200;5.814;2023-02-28T05:01:03;8.13;;;1.73;;
59504;SDS011;45321;53.200;5.814;2023-02-28T05:03:40;8.82;;;2.13;;
59504;SDS011;45321;53.200;5.814;2023-02-28T05:06:07;6.07;;;2.72;;
59504;SDS011;45321;53.200;5.814;2023-02-28T05:08:34;7.68;;;3.40;;
59504;SDS011;45321;53.200;5.814;2023-02-28T05:11:00;12.05;;;5.68;;
59504;SDS011;45321;53.200;5.814;2023-02-28T05:13:27;21.13;;;13.63;;
59504;SDS011;45321;53.200;5.814;2023-02-28T05:15:53;17.10;;;10.77;;
59504;SDS011;45321;53.200;5.814;2023-02-28T05:18:19;12.02;;;7.40;;
59504;SDS011;45321;53.200;5.814;2023-02-28T05:20:45;12.82;;;4.88;;
59504;SDS011;45321;53.200;5.814;2023-02-28T05:23:12;6.22;;;3.30;;
59504;SDS011;45321;53.200;5.814;2023-02-28T05:25:38;7.88;;;2.55;;
59504;SDS011;45321;53.200;5.814;2023-02-28T05:28:05;9.38;;;1.70;;
59504;SDS011;45321;53.200;5.814;2023-02-28T05:30:31;5.78;;;1.70;;
59504;SDS011;45321;53.200;5.814;2023-02-28T05:32:57;9.75;;;1.80;;
59504;SDS011;45321;53.200;5.814;2023-02-28T05:35:23;9.63;;;1.88;;
59504;SDS011;45321;53.200;5.814;2023-02-28T05:37:50;5.53;;;2.25;;
59504;SDS011;45321;53.200;5.814;2023-02-28T05:40:16;6.95;;;1.40;;
59504;SDS011;45321;53.200;5.814;2023-02-28T05:42:42;7.40;;;1.42;;
59504;SDS011;45321;53.200;5.814;2023-02-28T05:45:08;8.02;;;2.17;;
59504;SDS011;45321;53.200;5.814;2023-02-28T05:47:35;5.50;;;1.23;;
59504;SDS011;45321;53.200;5.814;2023-02-28T05:50:01;12.02;;;1.50;;
59504;SDS011;45321;53.200;5.814;2023-02-28T05:52:28;9.80;;;2.28;;
59504;SDS011;45321;53.200;5.814;2023-02-28T05:54:55;6.13;;;1.52;;
59504;SDS011;45321;53.200;5.814;2023-02-28T05:57:21;6.80;;;1.95;;
59504;SDS011;45321;53.200;5.814;2023-02-28T05:59:47;6.65;;;1.60;;
59504;SDS011;45321;53.200;5.814;2023-02-28T06:02:13;10.77;;;1.50;;
59504;SDS011;45321;53.200;5.814;2023-02-28T06:04:40;7.38;;;1.88;;
59504;SDS011;45321;53.200;5.814;2023-02-28T06:07:07;8.43;;;1.45;;
59504;SDS011;45321;53.200;5.814;2023-02-28T06:09:33;10.38;;;2.28;;
59504;SDS011;45321;53.200;5.814;2023-02-28T06:11:59;8.73;;;2.67;;
59504;SDS011;45321;53.200;5.814;2023-02-28T06:14:27;12.05;;;2.92;;
59504;SDS011;45321;53.200;5.814;2023-02-28T06:16:53;8.70;;;4.75;;
59504;SDS011;45321;53.200;5.814;2023-02-28T06:19:19;7.80;;;4.00;;
59504;SDS011;45321;53.200;5.814;2023-02-28T06:21:49;7.50;;;4.18;;
59504;SDS011;45321;53.200;5.814;2023-02-28T06:24:17;5.43;;;4.60;;
59504;SDS011;45321;53.200;5.814;2023-02-28T06:26:44;6.80;;;5.45;;
59504;SDS011;45321;53.200;5.814;2023-02-28T06:29:10;8.20;;;5.35;;
59504;SDS011;45321;53.200;5.814;2023-02-28T06:31:36;5.90;;;5.13;;
59504;SDS011;45321;53.200;5.814;2023-02-28T06:34:03;8.48;;;5.45;;
59504;SDS011;45321;53.200;5.814;2023-02-28T06:36:30;5.82;;;4.88;;
59504;SDS011;45321;53.200;5.814;2023-02-28T06:38:56;5.72;;;5.15;;
59504;SDS011;45321;53.200;5.814;2023-02-28T06:41:23;5.75;;;4.90;;
59504;SDS011;45321;53.200;5.814;2023-02-28T06:43:50;5.45;;;4.55;;
59504;SDS011;45321;53.200;5.814;2023-02-28T06:46:18;5.10;;;4.35;;
59504;SDS011;45321;53.200;5.814;2023-02-28T06:48:44;5.05;;;4.38;;
59504;SDS011;45321;53.200;5.814;2023-02-28T06:51:20;5.32;;;4.82;;
59504;SDS011;45321;53.200;5.814;2023-02-28T06:53:47;5.47;;;4.82;;
59504;SDS011;45321;53.200;5.814;2023-02-28T06:56:14;6.22;;;5.63;;
59504;SDS011;45321;53.200;5.814;2023-02-28T06:58:41;9.75;;;6.28;;
59504;SDS011;45321;53.200;5.814;2023-02-28T07:01:07;8.15;;;6.32;;
59504;SDS011;45321;53.200;5.814;2023-02-28T07:03:34;6.57;;;5.95;;
59504;SDS011;45321;53.200;5.814;2023-02-28T07:06:00;7.80;;;6.60;;
59504;SDS011;45321;53.200;5.814;2023-02-28T07:08:26;7.30;;;6.60;;
59504;SDS011;45321;53.200;5.814;2023-02-28T07:10:55;7.35;;;6.65;;
59504;SDS011;45321;53.200;5.814;2023-02-28T07:13:21;8.15;;;6.93;;
59504;SDS011;45321;53.200;5.814;2023-02-28T07:15:58;7.88;;;7.07;;
59504;SDS011;45321;53.200;5.814;2023-02-28T07:18:28;10.27;;;8.63;;
59504;SDS011;45321;53.200;5.814;2023-02-28T07:20:54;10.48;;;8.02;;
59504;SDS011;45321;53.200;5.814;2023-02-28T07:23:20;9.80;;;8.50;;
59504;SDS011;45321;53.200;5.814;2023-02-28T07:25:46;11.43;;;9.52;;
59504;SDS011;45321;53.200;5.814;2023-02-28T07:28:12;10.32;;;9.07;;
59504;SDS011;45321;53.200;5.814;2023-02-28T07:30:39;11.32;;;9.80;;
59504;SDS011;45321;53.200;5.814;2023-02-28T07:33:05;12.02;;;9.85;;
59504;SDS011;45321;53.200;5.814;2023-02-28T07:35:31;12.80;;;8.88;;
59504;SDS011;45321;53.200;5.814;2023-02-28T07:37:57;11.13;;;9.95;;
59504;SDS011;45321;53.200;5.814;2023-02-28T07:40:24;12.70;;;9.93;;
59504;SDS011;45321;53.200;5.814;2023-02-28T07:42:50;11.82;;;9.73;;
59504;SDS011;45321;53.200;5.814;2023-02-28T07:45:15;11.43;;;9.05;;
59504;SDS011;45321;53.200;5.814;2023-02-28T07:47:42;12.15;;;10.05;;
59504;SDS011;45321;53.200;5.814;2023-02-28T07:50:10;13.02;;;10.65;;
59504;SDS011;45321;53.200;5.814;2023-02-28T07:52:37;11.10;;;9.38;;
59504;SDS011;45321;53.200;5.814;2023-02-28T07:55:04;12.15;;;10.32;;
59504;SDS011;45321;53.200;5.814;2023-02-28T07:57:31;12.30;;;10.77;;
59504;SDS011;45321;53.200;5.814;2023-02-28T07:59:57;13.95;;;10.77;;
59504;SDS011;45321;53.200;5.814;2023-02-28T08:02:22;12.52;;;10.85;;
59504;SDS011;45321;53.200;5.814;2023-02-28T08:04:50;12.90;;;11.50;;
59504;SDS011;45321;53.200;5.814;2023-02-28T08:07:17;18.23;;;14.75;;
59504;SDS011;45321;53.200;5.814;2023-02-28T08:09:43;13.32;;;11.93;;
59504;SDS011;45321;53.200;5.814;2023-02-28T08:12:10;13.40;;;11.65;;
59504;SDS011;45321;53.200;5.814;2023-02-28T08:14:36;14.73;;;12.55;;
59504;SDS011;45321;53.200;5.814;2023-02-28T08:17:03;15.20;;;12.35;;
59504;SDS011;45321;53.200;5.814;2023-02-28T08:19:29;13.45;;;12.05;;
59504;SDS011;45321;53.200;5.814;2023-02-28T08:21:58;13.95;;;12.43;;
59504;SDS011;45321;53.200;5.814;2023-02-28T08:24:24;13.68;;;12.00;;
59504;SDS011;45321;53.200;5.814;2023-02-28T08:26:50;13.35;;;11.68;;
59504;SDS011;45321;53.200;5.814;2023-02-28T08:29:15;13.63;;;11.93;;
59504;SDS011;45321;53.200;5.814;2023-02-28T08:31:41;14.90;;;12.38;;
59504;SDS011;45321;53.200;5.814;2023-02-28T08:34:12;24.30;;;16.60;;
59504;SDS011;45321;53.200;5.814;2023-02-28T08:36:39;23.38;;;15.63;;
59504;SDS011;45321;53.200;5.814;2023-02-28T08:39:05;16.92;;;13.88;;
59504;SDS011;45321;53.200;5.814;2023-02-28T08:41:32;15.65;;;13.27;;
59504;SDS011;45321;53.200;5.814;2023-02-28T08:43:58;16.52;;;13.13;;
59504;SDS011;45321;53.200;5.814;2023-02-28T08:46:25;18.48;;;12.68;;
59504;SDS011;45321;53.200;5.814;2023-02-28T08:48:51;14.30;;;12.57;;
59504;SDS011;45321;53.200;5.814;2023-02-28T08:51:19;15.30;;;13.00;;
59504;SDS011;45321;53.200;5.814;2023-02-28T08:53:51;14.10;;;12.60;;
59504;SDS011;45321;53.200;5.814;2023-02-28T08:56:20;20.55;;;13.60;;
59504;SDS011;45321;53.200;5.814;2023-02-28T08:58:47;15.20;;;12.93;;
59504;SDS011;45321;53.200;5.814;2023-02-28T09:01:18;13.90;;;12.45;;
59504;SDS011;45321;53.200;5.814;2023-02-28T09:03:45;13.63;;;12.20;;
59504;SDS011;45321;53.200;5.814;2023-02-28T09:06:13;15.77;;;12.32;;
59504;SDS011;45321;53.200;5.814;2023-02-28T09:08:40;16.48;;;13.13;;
59504;SDS011;45321;53.200;5.814;2023-02-28T09:11:06;18.33;;;16.10;;
59504;SDS011;45321;53.200;5.814;2023-02-28T09:13:40;14.25;;;12.75;;
59504;SDS011;45321;53.200;5.814;2023-02-28T09:16:07;14.60;;;12.38;;
59504;SDS011;45321;53.200;5.814;2023-02-28T09:18:35;13.48;;;11.93;;
59504;SDS011;45321;53.200;5.814;2023-02-28T09:21:04;13.18;;;11.30;;
59504;SDS011;45321;53.200;5.814;2023-02-28T09:23:31;14.05;;;12.55;;
59504;SDS011;45321;53.200;5.814;2023-02-28T09:25:57;13.65;;;12.25;;
59504;SDS011;45321;53.200;5.814;2023-02-28T09:28:31;12.90;;;11.50;;
59504;SDS011;45321;53.200;5.814;2023-02-28T09:30:57;14.55;;;11.18;;
59504;SDS011;45321;53.200;5.814;2023-02-28T09:33:24;12.50;;;10.80;;
59504;SDS011;45321;53.200;5.814;2023-02-28T09:35:51;13.48;;;12.07;;
59504;SDS011;45321;53.200;5.814;2023-02-28T09:38:28;11.93;;;10.60;;
59504;SDS011;45321;53.200;5.814;2023-02-28T09:41:01;13.13;;;10.55;;
59504;SDS011;45321;53.200;5.814;2023-02-28T09:43:45;11.52;;;10.32;;
59504;SDS011;45321;53.200;5.814;2023-02-28T09:48:51;13.43;;;11.38;;
59504;SDS011;45321;53.200;5.814;2023-02-28T09:51:25;12.13;;;10.27;;
59504;SDS011;45321;53.200;5.814;2023-02-28T09:53:59;13.07;;;11.77;;
59504;SDS011;45321;53.200;5.814;2023-02-28T09:56:28;10.88;;;9.77;;
59504;SDS011;45321;53.200;5.814;2023-02-28T10:07:27;14.65;;;11.20;;
59504;SDS011;45321;53.200;5.814;2023-02-28T10:13:06;11.73;;;9.57;;
59504;SDS011;45321;53.200;5.814;2023-02-28T10:15:44;11.75;;;9.27;;
59504;SDS011;45321;53.200;5.814;2023-02-28T10:18:17;12.48;;;9.63;;
59504;SDS011;45321;53.200;5.814;2023-02-28T10:20:49;10.48;;;9.35;;
59504;SDS011;45321;53.200;5.814;2023-02-28T10:23:25;11.60;;;8.48;;
59504;SDS011;45321;53.200;5.814;2023-02-28T10:26:00;11.00;;;8.65;;
59504;SDS011;45321;53.200;5.814;2023-02-28T10:28:33;10.43;;;8.27;;
59504;SDS011;45321;53.200;5.814;2023-02-28T10:30:59;10.10;;;8.35;;
59504;SDS011;45321;53.200;5.814;2023-02-28T10:33:28;10.90;;;8.60;;
59504;SDS011;45321;53.200;5.814;2023-02-28T10:35:56;9.77;;;7.88;;
59504;SDS011;45321;53.200;5.814;2023-02-28T10:38:26;12.30;;;8.23;;
59504;SDS011;45321;53.200;5.814;2023-02-28T10:41:08;11.65;;;8.02;;
59504;SDS011;45321;53.200;5.814;2023-02-28T10:43:35;9.38;;;7.03;;
59504;SDS011;45321;53.200;5.814;2023-02-28T10:48:41;11.55;;;7.68;;
59504;SDS011;45321;53.200;5.814;2023-02-28T10:51:22;8.05;;;6.78;;
59504;SDS011;45321;53.200;5.814;2023-02-28T10:53:52;9.27;;;6.60;;
59504;SDS011;45321;53.200;5.814;2023-02-28T10:56:23;12.02;;;8.18;;
59504;SDS011;45321;53.200;5.814;2023-02-28T10:59:01;9.90;;;6.88;;
59504;SDS011;45321;53.200;5.814;2023-02-28T11:01:34;8.05;;;6.22;;
59504;SDS011;45321;53.200;5.814;2023-02-28T11:07:05;8.80;;;5.95;;
59504;SDS011;45321;53.200;5.814;2023-02-28T11:09:48;6.70;;;5.75;;
59504;SDS011;45321;53.200;5.814;2023-02-28T11:12:20;7.90;;;5.50;;
59504;SDS011;45321;53.200;5.814;2023-02-28T11:14:55;7.35;;;5.07;;
59504;SDS011;45321;53.200;5.814;2023-02-28T11:17:28;7.07;;;5.30;;
59504;SDS011;45321;53.200;5.814;2023-02-28T11:19:57;6.05;;;5.32;;
59504;SDS011;45321;53.200;5.814;2023-02-28T11:22:29;3.92;;;3.42;;
59504;SDS011;45321;53.200;5.814;2023-02-28T11:25:00;6.38;;;4.10;;
59504;SDS011;45321;53.200;5.814;2023-02-28T11:27:55;4.00;;;3.20;;
59504;SDS011;45321;53.200;5.814;2023-02-28T11:30:27;6.55;;;4.03;;
59504;SDS011;45321;53.200;5.814;2023-02-28T11:32:55;6.82;;;4.13;;
59504;SDS011;45321;53.200;5.814;2023-02-28T11:35:33;6.85;;;3.70;;
59504;SDS011;45321;53.200;5.814;2023-02-28T11:38:04;6.63;;;3.78;;
59504;SDS011;45321;53.200;5.814;2023-02-28T11:51:57;4.93;;;3.40;;
59504;SDS011;45321;53.200;5.814;2023-02-28T11:57:36;4.70;;;3.10;;
59504;SDS011;45321;53.200;5.814;2023-02-28T12:05:57;6.15;;;3.63;;
59504;SDS011;45321;53.200;5.814;2023-02-28T12:14:23;4.20;;;3.17;;
59504;SDS011;45321;53.200;5.814;2023-02-28T12:17:13;7.10;;;3.72;;
59504;SDS011;45321;53.200;5.814;2023-02-28T12:25:51;5.13;;;3.13;;
59504;SDS011;45321;53.200;5.814;2023-02-28T12:28:21;6.55;;;3.25;;
59504;SDS011;45321;53.200;5.814;2023-02-28T12:31:02;5.35;;;3.42;;
59504;SDS011;45321;53.200;5.814;2023-02-28T12:33:43;3.78;;;2.75;;
59504;SDS011;45321;53.200;5.814;2023-02-28T12:36:14;5.07;;;3.00;;
59504;SDS011;45321;53.200;5.814;2023-02-28T12:41:12;3.90;;;3.50;;
59504;SDS011;45321;53.200;5.814;2023-02-28T12:43:43;4.57;;;3.00;;
59504;SDS011;45321;53.200;5.814;2023-02-28T12:51:43;3.78;;;3.10;;
59504;SDS011;45321;53.200;5.814;2023-02-28T12:54:12;3.75;;;3.20;;
59504;SDS011;45321;53.200;5.814;2023-02-28T12:59:54;4.70;;;3.15;;
59504;SDS011;45321;53.200;5.814;2023-02-28T13:10:52;4.72;;;3.25;;
59504;SDS011;45321;53.200;5.814;2023-02-28T13:13:22;3.80;;;2.92;;
59504;SDS011;45321;53.200;5.814;2023-02-28T13:15:57;6.45;;;3.50;;
59504;SDS011;45321;53.200;5.814;2023-02-28T13:18:36;4.85;;;3.78;;
59504;SDS011;45321;53.200;5.814;2023-02-28T13:21:08;4.18;;;3.40;;
59504;SDS011;45321;53.200;5.814;2023-02-28T13:26:11;4.70;;;3.63;;
59504;SDS011;45321;53.200;5.814;2023-02-28T13:42:48;4.43;;;3.40;;
59504;SDS011;45321;53.200;5.814;2023-02-28T13:47:58;6.65;;;3.42;;
59504;SDS011;45321;53.200;5.814;2023-02-28T14:01:03;5.45;;;4.18;;
59504;SDS011;45321;53.200;5.814;2023-02-28T14:06:31;10.55;;;7.45;;
59504;SDS011;45321;53.200;5.814;2023-02-28T14:11:36;4.97;;;3.92;;
59504;SDS011;45321;53.200;5.814;2023-02-28T14:14:03;4.78;;;3.58;;
59504;SDS011;45321;53.200;5.814;2023-02-28T14:16:38;8.50;;;5.38;;
59504;SDS011;45321;53.200;5.814;2023-02-28T14:19:10;4.90;;;4.13;;
59504;SDS011;45321;53.200;5.814;2023-02-28T14:21:39;5.82;;;3.80;;
59504;SDS011;45321;53.200;5.814;2023-02-28T14:24:49;5.05;;;4.03;;
59504;SDS011;45321;53.200;5.814;2023-02-28T14:33:31;6.10;;;4.53;;
59504;SDS011;45321;53.200;5.814;2023-02-28T14:38:53;4.40;;;3.65;;
59504;SDS011;45321;53.200;5.814;2023-02-28T14:44:00;4.85;;;4.22;;
59504;SDS011;45321;53.200;5.814;2023-02-28T14:46:37;5.18;;;4.35;;
59504;SDS011;45321;53.200;5.814;2023-02-28T14:49:04;5.88;;;3.58;;
59504;SDS011;45321;53.200;5.814;2023-02-28T14:51:32;5.30;;;3.80;;
59504;SDS011;45321;53.200;5.814;2023-02-28T14:53:59;4.75;;;4.20;;
59504;SDS011;45321;53.200;5.814;2023-02-28T14:56:33;5.18;;;3.40;;
59504;SDS011;45321;53.200;5.814;2023-02-28T14:59:01;6.93;;;3.70;;
59504;SDS011;45321;53.200;5.814;2023-02-28T15:01:26;4.38;;;3.35;;
59504;SDS011;45321;53.200;5.814;2023-02-28T15:04:00;4.65;;;3.70;;
59504;SDS011;45321;53.200;5.814;2023-02-28T15:06:28;6.60;;;4.47;;
59504;SDS011;45321;53.200;5.814;2023-02-28T15:09:13;4.65;;;3.83;;
59504;SDS011;45321;53.200;5.814;2023-02-28T15:11:48;4.63;;;3.70;;
59504;SDS011;45321;53.200;5.814;2023-02-28T15:14:17;5.18;;;3.97;;
59504;SDS011;45321;53.200;5.814;2023-02-28T15:16:45;3.95;;;3.33;;
59504;SDS011;45321;53.200;5.814;2023-02-28T15:19:20;4.15;;;3.60;;
59504;SDS011;45321;53.200;5.814;2023-02-28T15:21:54;4.57;;;4.00;;
59504;SDS011;45321;53.200;5.814;2023-02-28T15:24:36;5.95;;;4.50;;
59504;SDS011;45321;53.200;5.814;2023-02-28T15:27:09;7.95;;;4.43;;
59504;SDS011;45321;53.200;5.814;2023-02-28T15:29:42;5.85;;;4.88;;
59504;SDS011;45321;53.200;5.814;2023-02-28T15:40:07;4.05;;;3.58;;
59504;SDS011;45321;53.200;5.814;2023-02-28T15:43:06;4.35;;;3.35;;
59504;SDS011;45321;53.200;5.814;2023-02-28T15:45:51;5.35;;;3.78;;
59504;SDS011;45321;53.200;5.814;2023-02-28T15:48:31;4.32;;;3.85;;
59504;SDS011;45321;53.200;5.814;2023-02-28T15:51:17;5.32;;;4.15;;
59504;SDS011;45321;53.200;5.814;2023-02-28T15:53:48;6.90;;;4.32;;
59504;SDS011;45321;53.200;5.814;2023-02-28T15:56:48;4.43;;;3.78;;
59504;SDS011;45321;53.200;5.814;2023-02-28T15:59:18;4.97;;;4.00;;
59504;SDS011;45321;53.200;5.814;2023-02-28T16:02:01;5.82;;;4.18;;
59504;SDS011;45321;53.200;5.814;2023-02-28T16:04:54;4.78;;;4.28;;
59504;SDS011;45321;53.200;5.814;2023-02-28T16:07:26;5.80;;;4.13;;
59504;SDS011;45321;53.200;5.814;2023-02-28T16:09:52;5.97;;;4.53;;
59504;SDS011;45321;53.200;5.814;2023-02-28T16:12:18;5.00;;;4.50;;
59504;SDS011;45321;53.200;5.814;2023-02-28T16:14:51;5.60;;;4.85;;
59504;SDS011;45321;53.200;5.814;2023-02-28T16:17:20;7.18;;;5.43;;
59504;SDS011;45321;53.200;5.814;2023-02-28T16:19:49;6.45;;;5.28;;
59504;SDS011;45321;53.200;5.814;2023-02-28T16:22:15;7.15;;;5.28;;
59504;SDS011;45321;53.200;5.814;2023-02-28T16:24:41;5.28;;;4.78;;
59504;SDS011;45321;53.200;5.814;2023-02-28T16:27:06;5.53;;;5.00;;
59504;SDS011;45321;53.200;5.814;2023-02-28T16:29:43;6.82;;;4.88;;
59504;SDS011;45321;53.200;5.814;2023-02-28T16:32:11;5.45;;;4.95;;
59504;SDS011;45321;53.200;5.814;2023-02-28T16:34:39;5.30;;;4.80;;
59504;SDS011;45321;53.200;5.814;2023-02-28T16:37:13;6.45;;;5.35;;
59504;SDS011;45321;53.200;5.814;2023-02-28T16:39:41;5.83;;;4.70;;
59504;SDS011;45321;53.200;5.814;2023-02-28T16:42:10;6.15;;;5.25;;
59504;SDS011;45321;53.200;5.814;2023-02-28T16:44:41;6.28;;;5.07;;
59504;SDS011;45321;53.200;5.814;2023-02-28T16:47:08;7.22;;;5.22;;
59504;SDS011;45321;53.200;5.814;2023-02-28T16:49:35;7.10;;;5.10;;
59504;SDS011;45321;53.200;5.814;2023-02-28T16:52:03;6.25;;;5.32;;
59504;SDS011;45321;53.200;5.814;2023-02-28T16:54:31;6.18;;;5.00;;
59504;SDS011;45321;53.200;5.814;2023-02-28T16:56:56;7.65;;;6.18;;
59504;SDS011;45321;53.200;5.814;2023-02-28T16:59:23;7.03;;;5.63;;
59504;SDS011;45321;53.200;5.814;2023-02-28T17:01:51;6.63;;;5.95;;
59504;SDS011;45321;53.200;5.814;2023-02-28T17:04:17;6.85;;;5.80;;
59504;SDS011;45321;53.200;5.814;2023-02-28T17:06:43;6.82;;;5.95;;
59504;SDS011;45321;53.200;5.814;2023-02-28T17:09:19;6.88;;;5.97;;
59504;SDS011;45321;53.200;5.814;2023-02-28T17:11:46;8.10;;;7.28;;
59504;SDS011;45321;53.200;5.814;2023-02-28T17:14:13;8.18;;;6.78;;
59504;SDS011;45321;53.200;5.814;2023-02-28T17:16:39;7.35;;;6.65;;
59504;SDS011;45321;53.200;5.814;2023-02-28T17:19:09;8.50;;;7.00;;
59504;SDS011;45321;53.200;5.814;2023-02-28T17:21:38;8.52;;;7.10;;
59504;SDS011;45321;53.200;5.814;2023-02-28T17:24:04;9.32;;;7.63;;
59504;SDS011;45321;53.200;5.814;2023-02-28T17:26:30;10.35;;;8.00;;
59504;SDS011;45321;53.200;5.814;2023-02-28T17:28:56;8.27;;;7.10;;
59504;SDS011;45321;53.200;5.814;2023-02-28T17:31:23;8.27;;;7.32;;
59504;SDS011;45321;53.200;5.814;2023-02-28T17:33:50;9.93;;;7.82;;
59504;SDS011;45321;53.200;5.814;2023-02-28T17:36:18;11.43;;;9.23;;
59504;SDS011;45321;53.200;5.814;2023-02-28T17:38:48;10.43;;;8.13;;
59504;SDS011;45321;53.200;5.814;2023-02-28T17:41:14;11.20;;;8.45;;
59504;SDS011;45321;53.200;5.814;2023-02-28T17:43:40;8.88;;;7.57;;
59504;SDS011;45321;53.200;5.814;2023-02-28T17:46:06;8.98;;;7.75;;
59504;SDS011;45321;53.200;5.814;2023-02-28T17:48:39;10.40;;;8.15;;